createdAt,value
2018-08-13T00:04:25.683Z,100670.43
2018-08-13T00:09:33.546Z,100666.19
2018-08-13T00:14:35.694Z,100652.47
2018-08-13T00:19:37.878Z,100641.74
2018-08-13T00:24:40.075Z,100639.12
2018-08-13T00:29:48.288Z,100638.73
2018-08-13T00:34:50.457Z,100625.45
2018-08-13T00:39:52.802Z,100626.34
2018-08-13T00:44:54.985Z,100628.53
2018-08-13T00:49:57.130Z,100630.22
2018-08-13T00:54:59.316Z,100619.10
2018-08-13T01:00:01.567Z,100610.98
2018-08-13T01:05:04.772Z,100607.62
2018-08-13T01:10:09.727Z,100604.70
2018-08-13T01:15:13.527Z,100609.00
2018-08-13T01:20:17.889Z,100599.19
2018-08-13T01:25:20.609Z,100589.39
2018-08-13T01:30:22.754Z,100587.30
2018-08-13T01:35:24.943Z,100585.61
2018-08-13T01:40:27.123Z,100582.19
2018-08-13T01:45:29.256Z,100575.83
2018-08-13T01:50:31.421Z,100571.98
2018-08-13T01:55:33.575Z,100557.95
2018-08-13T02:00:35.792Z,100574.64
2018-08-13T02:05:38.011Z,100572.89
2018-08-13T02:10:40.226Z,100568.64
2018-08-13T02:15:42.390Z,100568.22
2018-08-13T02:20:44.584Z,100562.63
2018-08-13T02:25:46.947Z,100556.66
2018-08-13T02:30:49.078Z,100551.97
2018-08-13T02:35:51.244Z,100553.62
2018-08-13T02:40:53.403Z,100551.95
2018-08-13T02:45:55.633Z,100544.67
2018-08-13T02:50:57.789Z,100538.23
2018-08-13T02:56:00.124Z,100536.09
2018-08-13T03:01:02.341Z,100532.30
2018-08-13T03:06:04.576Z,100533.13
2018-08-13T03:11:06.751Z,100536.95
2018-08-13T03:16:08.912Z,100536.55
2018-08-13T03:21:11.093Z,100528.03
2018-08-13T03:26:13.238Z,100524.21
2018-08-13T03:31:15.473Z,100514.73
2018-08-13T03:36:17.664Z,100504.08
2018-08-13T03:41:19.848Z,100491.25
2018-08-13T03:46:22.007Z,100497.29
2018-08-13T03:51:24.133Z,100496.43
2018-08-13T03:56:26.318Z,100504.61
2018-08-13T04:01:28.557Z,100496.98
2018-08-13T04:06:30.742Z,100485.82
2018-08-13T04:11:32.941Z,100467.53
2018-08-13T04:16:35.417Z,100476.84
2018-08-13T04:21:37.581Z,100470.86
2018-08-13T04:26:39.719Z,100461.89
2018-08-13T04:31:41.864Z,100461.05
2018-08-13T04:36:44.045Z,100451.16
2018-08-13T04:41:46.173Z,100446.83
2018-08-13T04:46:48.350Z,100443.45
2018-08-13T04:51:50.492Z,100449.02
2018-08-13T04:56:53.641Z,100458.88
2018-08-13T05:01:55.859Z,100455.02
2018-08-13T05:06:58.030Z,100450.76
2018-08-13T05:12:00.215Z,100443.93
2018-08-13T05:17:02.359Z,100445.17
2018-08-13T05:22:04.515Z,100441.73
2018-08-13T05:27:06.692Z,100441.77
2018-08-13T05:32:08.908Z,100443.02
2018-08-13T05:37:11.068Z,100446.46
2018-08-13T05:42:13.212Z,100455.38
2018-08-13T05:47:15.430Z,100451.08
2018-08-13T05:52:17.619Z,100450.94
2018-08-13T05:57:19.796Z,100458.63
2018-08-13T06:02:22.020Z,100454.20
2018-08-13T06:07:24.179Z,100458.95
2018-08-13T06:12:26.309Z,100455.45
2018-08-13T06:17:28.457Z,100452.03
2018-08-13T06:22:30.629Z,100440.47
2018-08-13T06:27:32.796Z,100431.48
2018-08-13T06:32:34.962Z,100437.02
2018-08-13T06:37:37.174Z,100444.22
2018-08-13T06:42:39.422Z,100446.29
2018-08-13T06:47:41.935Z,100459.06
2018-08-13T06:52:44.369Z,100441.42
2018-08-13T06:57:46.542Z,100441.40
2018-08-13T07:02:48.735Z,100436.61
2018-08-13T07:07:50.939Z,100429.27
2018-08-13T07:12:53.092Z,100438.61
2018-08-13T07:17:55.257Z,100432.19
2018-08-13T07:22:57.433Z,100433.53
2018-08-13T07:27:59.693Z,100432.67
2018-08-13T07:33:01.825Z,100441.61
2018-08-13T07:38:04.174Z,100442.04
2018-08-13T07:43:06.370Z,100440.30
2018-08-13T07:48:08.549Z,100431.33
2018-08-13T07:53:10.696Z,100438.55
2018-08-13T07:58:12.826Z,100439.76
2018-08-13T08:03:15.018Z,100447.44
2018-08-13T08:08:17.205Z,100444.84
2018-08-13T08:13:19.402Z,100442.64
2018-08-13T08:18:21.573Z,100436.19
2018-08-13T08:23:23.795Z,100433.55
2018-08-13T08:28:25.981Z,100430.39
2018-08-13T08:33:28.306Z,100421.33
2018-08-13T08:38:30.476Z,100416.95
2018-08-13T08:43:32.687Z,100412.92
2018-08-13T08:48:34.885Z,100406.38
2018-08-13T08:53:37.140Z,100406.28
2018-08-13T08:58:39.274Z,100410.89
2018-08-13T09:03:41.526Z,100414.75
2018-08-13T09:08:43.684Z,100411.78
2018-08-13T09:13:45.840Z,100409.56
2018-08-13T09:18:59.564Z,100400.48
2018-08-13T09:24:13.831Z,100402.05
2018-08-13T09:29:27.821Z,100394.53
2018-08-13T09:34:39.310Z,100387.12
2018-08-13T09:39:41.449Z,100386.61
2018-08-13T09:44:43.672Z,100386.28
2018-08-13T09:49:45.863Z,100377.83
2018-08-13T09:54:48.019Z,100367.94
2018-08-13T09:59:50.192Z,100369.34
2018-08-13T10:04:52.375Z,100363.13
2018-08-13T10:09:54.536Z,100355.91
2018-08-13T10:14:56.712Z,100349.19
2018-08-13T10:19:58.890Z,100343.78
2018-08-13T10:30:03.258Z,100342.27
2018-08-13T10:35:05.960Z,100340.22
2018-08-13T10:40:10.386Z,100339.09
2018-08-13T10:45:12.621Z,100329.57
2018-08-13T10:50:14.970Z,100328.89
2018-08-13T10:55:17.159Z,100316.53
2018-08-13T11:00:19.397Z,100311.80
2018-08-13T11:05:21.714Z,100309.83
2018-08-13T11:10:24.006Z,100310.69
2018-08-13T11:15:26.143Z,100308.20
2018-08-13T11:20:28.350Z,100302.74
2018-08-13T11:25:30.538Z,100312.05
2018-08-13T11:30:32.714Z,100311.11
2018-08-13T11:35:34.919Z,100304.93
2018-08-13T11:40:37.210Z,100303.88
2018-08-13T11:45:39.407Z,100298.67
2018-08-13T11:50:41.667Z,100295.19
2018-08-13T11:55:43.860Z,100295.52
2018-08-13T12:00:46.040Z,100303.02
2018-08-13T12:05:48.264Z,100298.05
2018-08-13T12:10:51.124Z,100300.25
2018-08-13T12:15:53.316Z,100296.05
2018-08-13T12:20:55.466Z,100290.04
2018-08-13T12:25:57.679Z,100287.17
2018-08-13T12:30:59.953Z,100285.59
2018-08-13T12:36:02.142Z,100284.02
2018-08-13T12:41:04.645Z,100280.59
2018-08-13T12:46:07.670Z,100261.74
2018-08-13T12:51:09.915Z,100254.50
2018-08-13T12:56:12.122Z,100246.58
2018-08-13T13:01:14.293Z,100241.00
2018-08-13T13:06:16.558Z,100230.06
2018-08-13T13:11:18.764Z,100226.61
2018-08-13T13:16:20.961Z,100225.04
2018-08-13T13:21:23.243Z,100224.39
2018-08-13T13:26:25.449Z,100231.02
2018-08-13T13:31:27.630Z,100219.36
2018-08-13T13:36:29.841Z,100215.66
2018-08-13T13:41:32.014Z,100204.29
2018-08-13T13:46:34.237Z,100207.84
2018-08-13T13:51:36.541Z,100203.44
2018-08-13T13:56:38.825Z,100195.53
2018-08-13T14:01:41.034Z,100195.63
2018-08-13T14:06:43.329Z,100194.98
2018-08-13T14:11:45.557Z,100197.73
2018-08-13T14:16:47.714Z,100175.89
2018-08-13T14:21:49.900Z,100201.11
2018-08-13T14:26:52.110Z,100203.73
2018-08-13T14:31:54.313Z,100204.13
2018-08-13T14:36:56.496Z,100201.50
2018-08-13T14:41:58.683Z,100195.16
2018-08-13T14:47:00.873Z,100180.84
2018-08-13T14:52:03.146Z,100195.30
2018-08-13T14:57:05.451Z,100204.78
2018-08-13T15:02:07.721Z,100211.66
2018-08-13T15:07:09.990Z,100203.97
2018-08-13T15:12:12.206Z,100204.27
2018-08-13T15:17:14.514Z,100206.45
2018-08-13T15:22:16.758Z,100210.07
2018-08-13T15:27:19.050Z,100204.55
2018-08-13T15:32:21.243Z,100204.30
2018-08-13T15:37:23.494Z,100201.77
2018-08-13T15:42:25.724Z,100205.59
2018-08-13T15:47:27.932Z,100206.91
2018-08-13T15:57:45.731Z,100196.16
2018-08-13T16:02:48.251Z,100188.89
2018-08-13T16:07:50.939Z,100193.14
2018-08-13T16:12:54.215Z,100186.79
2018-08-13T16:17:56.453Z,100188.47
2018-08-13T16:22:58.679Z,100179.06
2018-08-13T16:28:00.865Z,100171.22
2018-08-13T16:33:03.110Z,100172.06
2018-08-13T16:38:05.366Z,100168.21
2018-08-13T16:43:07.554Z,100164.39
2018-08-13T16:48:09.751Z,100158.43
2018-08-13T16:53:12.014Z,100164.48
2018-08-13T16:58:14.243Z,100159.34
2018-08-13T17:03:16.464Z,100156.38
2018-08-13T17:08:18.694Z,100152.13
2018-08-13T17:13:20.977Z,100142.69
2018-08-13T17:18:23.242Z,100140.07
2018-08-13T17:23:25.455Z,100145.27
2018-08-13T17:28:27.666Z,100144.41
2018-08-13T17:33:30.203Z,100147.03
2018-08-13T17:38:32.518Z,100147.89
2018-08-13T17:43:34.765Z,100147.03
2018-08-13T17:48:37.016Z,100155.66
2018-08-13T17:53:39.249Z,100152.23
2018-08-13T17:58:41.436Z,100148.41
2018-08-13T18:03:43.664Z,100142.02
2018-08-13T18:08:45.925Z,100136.48
2018-08-13T18:13:48.227Z,100140.82
2018-08-13T18:18:50.486Z,100128.00
2018-08-13T18:23:52.770Z,100135.39
2018-08-13T18:28:54.951Z,100138.41
2018-08-13T18:33:57.216Z,100146.64
2018-08-13T18:38:59.579Z,100151.44
2018-08-13T18:44:01.806Z,100152.73
2018-08-13T18:49:04.060Z,100162.64
2018-08-13T18:54:06.297Z,100160.54
2018-08-13T18:59:08.592Z,100169.13
2018-08-13T19:04:11.187Z,100179.02
2018-08-13T19:09:13.454Z,100185.03
2018-08-13T19:14:15.740Z,100195.36
2018-08-13T19:19:18.023Z,100205.69
2018-08-13T19:24:20.296Z,100231.86
2018-08-13T19:29:22.575Z,100244.13
2018-08-13T19:34:24.783Z,100239.02
2018-08-13T19:39:27.022Z,100228.91
2018-08-13T19:44:29.314Z,100221.13
2018-08-13T19:49:31.571Z,100199.13
2018-08-13T19:54:33.801Z,100169.71
2018-08-13T19:59:36.037Z,100173.30
2018-08-13T20:04:38.368Z,100164.29
2018-08-13T20:09:40.615Z,100174.15
2018-08-13T20:14:42.835Z,100187.51
2018-08-13T20:19:45.164Z,100186.66
2018-08-13T20:24:47.309Z,100179.80
2018-08-13T20:29:49.556Z,100166.05
2018-08-13T20:34:51.763Z,100169.51
2018-08-13T20:39:53.984Z,100177.61
2018-08-13T20:44:56.238Z,100181.94
2018-08-13T20:49:58.526Z,100177.66
2018-08-13T20:55:00.795Z,100189.30
2018-08-13T21:00:04.024Z,100206.70
2018-08-13T21:05:07.304Z,100211.10
2018-08-13T21:10:12.058Z,100204.89
2018-08-13T21:15:15.027Z,100205.45
2018-08-13T21:20:28.242Z,100202.95
2018-08-13T21:25:30.584Z,100211.38
2018-08-13T21:30:32.802Z,100212.73
2018-08-13T21:35:35.002Z,100210.43
2018-08-13T21:40:37.213Z,100207.47
2018-08-13T21:45:39.458Z,100216.95
2018-08-13T21:50:41.711Z,100213.00
2018-08-13T21:55:43.894Z,100214.80
2018-08-13T22:00:51.627Z,100212.20
2018-08-13T22:05:53.951Z,100211.11
2018-08-13T22:10:56.215Z,100218.05
2018-08-13T22:15:58.459Z,100213.34
2018-08-13T22:21:00.615Z,100216.34
2018-08-13T22:26:02.940Z,100212.70
2018-08-13T22:31:05.116Z,100213.68
2018-08-13T22:36:07.329Z,100214.56
2018-08-13T22:41:09.507Z,100211.14
2018-08-13T22:46:11.713Z,100208.48
2018-08-13T22:51:13.943Z,100215.66
2018-08-13T22:56:16.147Z,100216.64
2018-08-13T23:01:18.336Z,100227.28
2018-08-13T23:06:20.571Z,100229.45
2018-08-13T23:11:22.769Z,100223.27
2018-08-13T23:16:24.950Z,100227.59
2018-08-13T23:21:27.120Z,100236.61
2018-08-13T23:26:29.303Z,100240.49
2018-08-13T23:31:31.503Z,100238.05
2018-08-13T23:36:33.707Z,100239.23
2018-08-13T23:41:35.893Z,100238.78
2018-08-13T23:46:38.143Z,100242.30
2018-08-13T23:51:40.453Z,100231.62
2018-08-13T23:56:42.678Z,100229.64
